createdAt,value
2024-05-09T00:23:16.167Z,9.7
2024-05-09T00:53:17.635Z,8.9
2024-05-09T01:23:17.784Z,10
2024-05-09T01:53:18.291Z,12.6
2024-05-09T02:23:18.986Z,16.8
2024-05-09T02:53:19.516Z,9.3
2024-05-09T03:23:20.627Z,6.7
2024-05-09T03:53:21.695Z,6.8
2024-05-09T04:23:21.553Z,15.2
2024-05-09T04:53:22.240Z,6.1
2024-05-09T05:23:23.947Z,13.7
2024-05-09T05:53:24.550Z,17.6
2024-05-09T06:23:26.836Z,21
2024-05-09T06:53:29.736Z,25.1
2024-05-09T07:23:32.583Z,24.9
2024-05-09T07:53:44.250Z,20.2
2024-05-09T08:23:38.571Z,16.1
2024-05-09T08:53:41.903Z,15.6
2024-05-09T09:23:45.286Z,13.9
2024-05-09T09:53:51.407Z,12.5
2024-05-09T10:23:55.940Z,14.9
2024-05-09T10:53:57.820Z,15.8
2024-05-09T11:24:00.079Z,14.1
2024-05-09T11:54:03.915Z,13
2024-05-09T12:24:08.008Z,12.7
2024-05-09T12:54:12.352Z,13.7
2024-05-09T13:24:17.835Z,16.8
2024-05-09T13:54:22.527Z,18.5
2024-05-09T14:24:24.493Z,21.5
2024-05-09T14:54:28.609Z,19.6
2024-05-09T15:24:32.627Z,19.7
2024-05-09T15:54:36.930Z,16.9
2024-05-09T16:24:40.757Z,15.8
2024-05-09T16:54:44.268Z,13.6
2024-05-09T17:24:47.725Z,14.7
2024-05-09T17:54:50.872Z,14.2
2024-05-09T18:24:54.012Z,14
2024-05-09T18:54:56.687Z,17.5
2024-05-09T19:24:58.976Z,16.7
2024-05-09T19:55:01.521Z,15.2
2024-05-09T20:25:04.275Z,18.4
2024-05-09T20:55:06.043Z,19.7
2024-05-09T21:25:07.719Z,19.4
2024-05-09T21:55:09.480Z,21.2
2024-05-09T22:25:10.889Z,20.6
2024-05-09T22:55:12.188Z,23.5
2024-05-09T23:25:13.128Z,21.6
2024-05-09T23:55:14.295Z,20.5
